Terminal Aerodrome Forecast
Issued by NWS Portland, ME

Home | Current Version | Previous Version | Text Only | Print | Product List | Glossary On
Versions: 1 2 3 4 5 6 7 8 9 10 11 12 13 14 15 16 17 18 19 20
000
FTUS41 KGYX 281959 AAB
TAFPWM
TAF AMD
KPWM 281959Z 2820/2918 06009KT P6SM OVC060
     FM290000 34010KT P6SM OVC050
     FM290600 33006KT P6SM OVC100=

USA.gov is the U.S. government's official web portal to all federal, state and local government web resources and services.